sensor_id;sensor_type;location;lat;lon;timestamp;temperature;humidity
3921;DHT22;1975;49.356;6.816;2023-03-19T00:00:52;12.70;99.90
3921;DHT22;1975;49.356;6.816;2023-03-19T00:03:18;12.70;99.90
3921;DHT22;1975;49.356;6.816;2023-03-19T00:05:53;12.70;99.90
3921;DHT22;1975;49.356;6.816;2023-03-19T00:08:18;12.60;99.90
3921;DHT22;1975;49.356;6.816;2023-03-19T00:10:44;12.60;99.90
3921;DHT22;1975;49.356;6.816;2023-03-19T00:13:09;12.60;99.90
3921;DHT22;1975;49.356;6.816;2023-03-19T00:15:35;12.60;99.90
3921;DHT22;1975;49.356;6.816;2023-03-19T00:18:00;12.60;99.90
3921;DHT22;1975;49.356;6.816;2023-03-19T00:20:26;12.60;99.90
3921;DHT22;1975;49.356;6.816;2023-03-19T00:22:51;12.60;99.90
3921;DHT22;1975;49.356;6.816;2023-03-19T00:25:17;12.60;99.90
3921;DHT22;1975;49.356;6.816;2023-03-19T00:27:42;12.60;99.90
3921;DHT22;1975;49.356;6.816;2023-03-19T00:30:08;12.60;99.90
3921;DHT22;1975;49.356;6.816;2023-03-19T00:32:35;12.50;99.90
3921;DHT22;1975;49.356;6.816;2023-03-19T00:35:01;12.50;99.90
3921;DHT22;1975;49.356;6.816;2023-03-19T00:37:26;12.50;99.90
3921;DHT22;1975;49.356;6.816;2023-03-19T00:39:52;12.50;99.90
3921;DHT22;1975;49.356;6.816;2023-03-19T00:42:18;12.50;99.90
3921;DHT22;1975;49.356;6.816;2023-03-19T00:44:43;12.50;99.90
3921;DHT22;1975;49.356;6.816;2023-03-19T00:47:09;12.50;99.90
3921;DHT22;1975;49.356;6.816;2023-03-19T00:49:34;12.40;99.90
3921;DHT22;1975;49.356;6.816;2023-03-19T00:52:00;12.40;99.90
3921;DHT22;1975;49.356;6.816;2023-03-19T00:54:25;12.40;99.90
3921;DHT22;1975;49.356;6.816;2023-03-19T00:56:51;12.40;99.90
3921;DHT22;1975;49.356;6.816;2023-03-19T00:59:17;12.40;99.90
3921;DHT22;1975;49.356;6.816;2023-03-19T01:01:42;12.40;99.90
3921;DHT22;1975;49.356;6.816;2023-03-19T01:04:07;12.30;99.90
3921;DHT22;1975;49.356;6.816;2023-03-19T01:06:35;12.30;99.90
3921;DHT22;1975;49.356;6.816;2023-03-19T01:09:00;12.30;99.90
3921;DHT22;1975;49.356;6.816;2023-03-19T01:11:26;12.30;99.90
3921;DHT22;1975;49.356;6.816;2023-03-19T01:13:52;12.30;99.90
3921;DHT22;1975;49.356;6.816;2023-03-19T01:16:17;12.30;99.90
3921;DHT22;1975;49.356;6.816;2023-03-19T01:18:43;12.20;99.90
3921;DHT22;1975;49.356;6.816;2023-03-19T01:21:08;12.30;99.90
3921;DHT22;1975;49.356;6.816;2023-03-19T01:23:35;12.20;99.90
3921;DHT22;1975;49.356;6.816;2023-03-19T01:26:00;12.20;99.90
3921;DHT22;1975;49.356;6.816;2023-03-19T01:28:25;12.20;99.90
3921;DHT22;1975;49.356;6.816;2023-03-19T01:30:51;12.20;99.90
3921;DHT22;1975;49.356;6.816;2023-03-19T01:33:16;12.20;99.90
3921;DHT22;1975;49.356;6.816;2023-03-19T01:35:45;12.20;99.90
3921;DHT22;1975;49.356;6.816;2023-03-19T01:38:12;12.20;99.90
3921;DHT22;1975;49.356;6.816;2023-03-19T01:40:42;12.10;99.90
3921;DHT22;1975;49.356;6.816;2023-03-19T01:43:15;12.10;99.90
3921;DHT22;1975;49.356;6.816;2023-03-19T01:45:42;12.10;99.90
3921;DHT22;1975;49.356;6.816;2023-03-19T01:48:11;12.10;99.90
3921;DHT22;1975;49.356;6.816;2023-03-19T01:50:41;12.10;99.90
3921;DHT22;1975;49.356;6.816;2023-03-19T01:53:08;12.10;99.90
3921;DHT22;1975;49.356;6.816;2023-03-19T01:55:35;12.10;99.90
3921;DHT22;1975;49.356;6.816;2023-03-19T01:58:01;12.00;99.90
3921;DHT22;1975;49.356;6.816;2023-03-19T02:00:27;12.00;99.90
3921;DHT22;1975;49.356;6.816;2023-03-19T02:02:53;12.00;99.90
3921;DHT22;1975;49.356;6.816;2023-03-19T02:05:21;12.00;99.90
3921;DHT22;1975;49.356;6.816;2023-03-19T02:07:51;12.00;99.90
3921;DHT22;1975;49.356;6.816;2023-03-19T02:10:17;12.00;99.90
3921;DHT22;1975;49.356;6.816;2023-03-19T02:12:43;12.00;99.90
3921;DHT22;1975;49.356;6.816;2023-03-19T02:15:09;11.90;99.90
3921;DHT22;1975;49.356;6.816;2023-03-19T02:17:35;11.90;99.90
3921;DHT22;1975;49.356;6.816;2023-03-19T02:22:31;11.90;99.90
3921;DHT22;1975;49.356;6.816;2023-03-19T02:25:31;11.90;99.90
3921;DHT22;1975;49.356;6.816;2023-03-19T02:27:48;11.80;99.90
3921;DHT22;1975;49.356;6.816;2023-03-19T02:30:24;11.80;99.90
3921;DHT22;1975;49.356;6.816;2023-03-19T02:32:50;11.80;99.90
3921;DHT22;1975;49.356;6.816;2023-03-19T02:35:16;11.80;99.90
3921;DHT22;1975;49.356;6.816;2023-03-19T02:37:42;11.80;99.90
3921;DHT22;1975;49.356;6.816;2023-03-19T02:40:12;11.70;99.90
3921;DHT22;1975;49.356;6.816;2023-03-19T02:42:38;11.70;99.90
3921;DHT22;1975;49.356;6.816;2023-03-19T02:45:04;11.70;99.90
3921;DHT22;1975;49.356;6.816;2023-03-19T02:47:30;11.70;99.90
3921;DHT22;1975;49.356;6.816;2023-03-19T02:49:55;11.70;99.90
3921;DHT22;1975;49.356;6.816;2023-03-19T02:52:21;11.70;99.90
3921;DHT22;1975;49.356;6.816;2023-03-19T02:54:46;11.70;99.90
3921;DHT22;1975;49.356;6.816;2023-03-19T02:57:12;11.70;99.90
3921;DHT22;1975;49.356;6.816;2023-03-19T02:59:38;11.60;99.90
3921;DHT22;1975;49.356;6.816;2023-03-19T03:02:03;11.70;99.90
3921;DHT22;1975;49.356;6.816;2023-03-19T03:04:29;11.60;99.90
3921;DHT22;1975;49.356;6.816;2023-03-19T03:06:55;11.60;99.90
3921;DHT22;1975;49.356;6.816;2023-03-19T03:09:21;11.60;99.90
3921;DHT22;1975;49.356;6.816;2023-03-19T03:11:46;11.60;99.90
3921;DHT22;1975;49.356;6.816;2023-03-19T03:14:12;11.60;99.90
3921;DHT22;1975;49.356;6.816;2023-03-19T03:16:38;11.60;99.90
3921;DHT22;1975;49.356;6.816;2023-03-19T03:19:03;11.60;99.90
3921;DHT22;1975;49.356;6.816;2023-03-19T03:21:29;11.50;99.90
3921;DHT22;1975;49.356;6.816;2023-03-19T03:23:54;11.50;99.90
3921;DHT22;1975;49.356;6.816;2023-03-19T03:26:20;11.50;99.90
3921;DHT22;1975;49.356;6.816;2023-03-19T03:28:46;11.50;99.90
3921;DHT22;1975;49.356;6.816;2023-03-19T03:31:11;11.50;99.90
3921;DHT22;1975;49.356;6.816;2023-03-19T03:33:37;11.50;99.90
3921;DHT22;1975;49.356;6.816;2023-03-19T03:36:03;11.50;99.90
3921;DHT22;1975;49.356;6.816;2023-03-19T03:38:29;11.40;99.90
3921;DHT22;1975;49.356;6.816;2023-03-19T03:40:54;11.40;99.90
3921;DHT22;1975;49.356;6.816;2023-03-19T03:43:20;11.40;99.90
3921;DHT22;1975;49.356;6.816;2023-03-19T03:45:46;11.40;99.90
3921;DHT22;1975;49.356;6.816;2023-03-19T03:48:12;11.40;99.90
3921;DHT22;1975;49.356;6.816;2023-03-19T03:50:37;11.40;99.90
3921;DHT22;1975;49.356;6.816;2023-03-19T03:53:03;11.40;99.90
3921;DHT22;1975;49.356;6.816;2023-03-19T03:55:29;11.40;99.90
3921;DHT22;1975;49.356;6.816;2023-03-19T03:57:54;11.30;99.90
3921;DHT22;1975;49.356;6.816;2023-03-19T04:00:20;11.40;99.90
3921;DHT22;1975;49.356;6.816;2023-03-19T04:02:45;11.40;99.90
3921;DHT22;1975;49.356;6.816;2023-03-19T04:05:11;11.30;99.90
3921;DHT22;1975;49.356;6.816;2023-03-19T04:07:37;11.30;99.90
3921;DHT22;1975;49.356;6.816;2023-03-19T04:10:03;11.30;99.90
3921;DHT22;1975;49.356;6.816;2023-03-19T04:12:28;11.30;99.90
3921;DHT22;1975;49.356;6.816;2023-03-19T04:14:54;11.30;99.90
3921;DHT22;1975;49.356;6.816;2023-03-19T04:17:19;11.30;99.90
3921;DHT22;1975;49.356;6.816;2023-03-19T04:19:45;11.30;99.90
3921;DHT22;1975;49.356;6.816;2023-03-19T04:22:10;11.30;99.90
3921;DHT22;1975;49.356;6.816;2023-03-19T04:24:36;11.30;99.90
3921;DHT22;1975;49.356;6.816;2023-03-19T04:27:01;11.30;99.90
3921;DHT22;1975;49.356;6.816;2023-03-19T04:29:27;11.30;99.90
3921;DHT22;1975;49.356;6.816;2023-03-19T04:31:52;11.30;99.90
3921;DHT22;1975;49.356;6.816;2023-03-19T04:34:17;11.30;99.90
3921;DHT22;1975;49.356;6.816;2023-03-19T04:36:43;11.30;99.90
3921;DHT22;1975;49.356;6.816;2023-03-19T04:39:09;11.30;99.90
3921;DHT22;1975;49.356;6.816;2023-03-19T04:41:34;11.20;99.90
3921;DHT22;1975;49.356;6.816;2023-03-19T04:44:00;11.30;99.90
3921;DHT22;1975;49.356;6.816;2023-03-19T04:46:26;11.20;99.90
3921;DHT22;1975;49.356;6.816;2023-03-19T04:48:51;11.20;99.90
3921;DHT22;1975;49.356;6.816;2023-03-19T04:51:17;11.20;99.90
3921;DHT22;1975;49.356;6.816;2023-03-19T04:53:45;11.20;99.90
3921;DHT22;1975;49.356;6.816;2023-03-19T04:56:11;11.20;99.90
3921;DHT22;1975;49.356;6.816;2023-03-19T04:58:40;11.20;99.90
3921;DHT22;1975;49.356;6.816;2023-03-19T05:01:06;11.20;99.90
3921;DHT22;1975;49.356;6.816;2023-03-19T05:03:31;11.20;99.90
3921;DHT22;1975;49.356;6.816;2023-03-19T05:05:57;11.20;99.90
3921;DHT22;1975;49.356;6.816;2023-03-19T05:08:22;11.20;99.90
3921;DHT22;1975;49.356;6.816;2023-03-19T05:10:48;11.20;99.90
3921;DHT22;1975;49.356;6.816;2023-03-19T05:13:13;11.20;99.90
3921;DHT22;1975;49.356;6.816;2023-03-19T05:15:42;11.20;99.90
3921;DHT22;1975;49.356;6.816;2023-03-19T05:18:07;11.20;99.90
3921;DHT22;1975;49.356;6.816;2023-03-19T05:20:33;11.20;99.90
3921;DHT22;1975;49.356;6.816;2023-03-19T05:22:59;11.20;99.90
3921;DHT22;1975;49.356;6.816;2023-03-19T05:25:25;11.10;99.90
3921;DHT22;1975;49.356;6.816;2023-03-19T05:27:51;11.10;99.90
3921;DHT22;1975;49.356;6.816;2023-03-19T05:30:16;11.20;99.90
3921;DHT22;1975;49.356;6.816;2023-03-19T05:32:42;11.20;99.90
3921;DHT22;1975;49.356;6.816;2023-03-19T05:35:08;11.20;99.90
3921;DHT22;1975;49.356;6.816;2023-03-19T05:37:34;11.10;99.90
3921;DHT22;1975;49.356;6.816;2023-03-19T05:39:59;11.20;99.90
3921;DHT22;1975;49.356;6.816;2023-03-19T05:42:25;11.10;99.90
3921;DHT22;1975;49.356;6.816;2023-03-19T05:44:50;11.10;99.90
3921;DHT22;1975;49.356;6.816;2023-03-19T05:47:16;11.10;99.90
3921;DHT22;1975;49.356;6.816;2023-03-19T05:49:41;11.10;99.90
3921;DHT22;1975;49.356;6.816;2023-03-19T05:52:07;11.10;99.90
3921;DHT22;1975;49.356;6.816;2023-03-19T05:54:33;11.10;99.90
3921;DHT22;1975;49.356;6.816;2023-03-19T05:56:58;11.10;99.90
3921;DHT22;1975;49.356;6.816;2023-03-19T05:59:24;11.10;99.90
3921;DHT22;1975;49.356;6.816;2023-03-19T06:01:50;11.10;99.90
3921;DHT22;1975;49.356;6.816;2023-03-19T06:04:15;11.10;99.90
3921;DHT22;1975;49.356;6.816;2023-03-19T06:06:41;11.10;99.90
3921;DHT22;1975;49.356;6.816;2023-03-19T06:09:07;11.10;99.90
3921;DHT22;1975;49.356;6.816;2023-03-19T06:11:33;11.10;99.90
3921;DHT22;1975;49.356;6.816;2023-03-19T06:13:58;11.10;99.90
3921;DHT22;1975;49.356;6.816;2023-03-19T06:16:23;11.10;99.90
3921;DHT22;1975;49.356;6.816;2023-03-19T06:18:49;11.00;99.90
3921;DHT22;1975;49.356;6.816;2023-03-19T06:21:15;11.10;99.90
3921;DHT22;1975;49.356;6.816;2023-03-19T06:23:41;11.00;99.90
3921;DHT22;1975;49.356;6.816;2023-03-19T06:26:06;11.00;99.90
3921;DHT22;1975;49.356;6.816;2023-03-19T06:28:32;11.00;99.90
3921;DHT22;1975;49.356;6.816;2023-03-19T06:30:57;11.00;99.90
3921;DHT22;1975;49.356;6.816;2023-03-19T06:33:23;11.00;99.90
3921;DHT22;1975;49.356;6.816;2023-03-19T06:35:52;11.00;99.90
3921;DHT22;1975;49.356;6.816;2023-03-19T06:38:17;11.00;99.90
3921;DHT22;1975;49.356;6.816;2023-03-19T06:40:43;11.00;99.90
3921;DHT22;1975;49.356;6.816;2023-03-19T06:43:08;11.00;99.90
3921;DHT22;1975;49.356;6.816;2023-03-19T06:45:34;11.00;99.90
3921;DHT22;1975;49.356;6.816;2023-03-19T06:47:59;11.00;99.90
3921;DHT22;1975;49.356;6.816;2023-03-19T06:50:25;11.00;99.90
3921;DHT22;1975;49.356;6.816;2023-03-19T06:52:51;11.00;99.90
3921;DHT22;1975;49.356;6.816;2023-03-19T06:55:17;11.00;99.90
3921;DHT22;1975;49.356;6.816;2023-03-19T06:57:48;11.00;99.90
3921;DHT22;1975;49.356;6.816;2023-03-19T07:00:14;11.00;99.90
3921;DHT22;1975;49.356;6.816;2023-03-19T07:02:40;11.00;99.90
3921;DHT22;1975;49.356;6.816;2023-03-19T07:05:06;11.00;99.90
3921;DHT22;1975;49.356;6.816;2023-03-19T07:07:31;11.00;99.90
3921;DHT22;1975;49.356;6.816;2023-03-19T07:09:57;11.00;99.90
3921;DHT22;1975;49.356;6.816;2023-03-19T07:12:22;11.00;99.90
3921;DHT22;1975;49.356;6.816;2023-03-19T07:14:48;11.00;99.90
3921;DHT22;1975;49.356;6.816;2023-03-19T07:17:13;11.00;99.90
3921;DHT22;1975;49.356;6.816;2023-03-19T07:19:38;11.00;99.90
3921;DHT22;1975;49.356;6.816;2023-03-19T07:22:04;11.00;99.90
3921;DHT22;1975;49.356;6.816;2023-03-19T07:24:30;11.00;99.90
3921;DHT22;1975;49.356;6.816;2023-03-19T07:26:55;10.90;99.90
3921;DHT22;1975;49.356;6.816;2023-03-19T07:29:21;10.90;99.90
3921;DHT22;1975;49.356;6.816;2023-03-19T07:31:46;11.00;99.90
3921;DHT22;1975;49.356;6.816;2023-03-19T07:34:12;10.90;99.90
3921;DHT22;1975;49.356;6.816;2023-03-19T07:36:37;11.00;99.90
3921;DHT22;1975;49.356;6.816;2023-03-19T07:39:03;10.90;99.90
3921;DHT22;1975;49.356;6.816;2023-03-19T07:41:28;11.00;99.90
3921;DHT22;1975;49.356;6.816;2023-03-19T07:43:54;10.90;99.90
3921;DHT22;1975;49.356;6.816;2023-03-19T07:46:19;10.90;99.90
3921;DHT22;1975;49.356;6.816;2023-03-19T07:48:45;10.90;99.90
3921;DHT22;1975;49.356;6.816;2023-03-19T07:51:11;10.90;99.90
3921;DHT22;1975;49.356;6.816;2023-03-19T07:53:36;10.90;99.90
3921;DHT22;1975;49.356;6.816;2023-03-19T07:56:02;10.90;99.90
3921;DHT22;1975;49.356;6.816;2023-03-19T07:58:27;10.90;99.90
3921;DHT22;1975;49.356;6.816;2023-03-19T08:00:53;10.90;99.90
3921;DHT22;1975;49.356;6.816;2023-03-19T08:03:18;10.90;99.90
3921;DHT22;1975;49.356;6.816;2023-03-19T08:05:44;11.00;99.90
3921;DHT22;1975;49.356;6.816;2023-03-19T08:08:09;11.00;99.90
3921;DHT22;1975;49.356;6.816;2023-03-19T08:10:35;11.00;99.90
3921;DHT22;1975;49.356;6.816;2023-03-19T08:13:00;11.00;99.90
3921;DHT22;1975;49.356;6.816;2023-03-19T08:15:26;11.00;99.90
3921;DHT22;1975;49.356;6.816;2023-03-19T08:17:58;11.00;99.90
3921;DHT22;1975;49.356;6.816;2023-03-19T08:20:23;11.00;99.90
3921;DHT22;1975;49.356;6.816;2023-03-19T08:22:49;11.00;99.90
3921;DHT22;1975;49.356;6.816;2023-03-19T08:25:15;11.00;99.90
3921;DHT22;1975;49.356;6.816;2023-03-19T08:27:40;11.00;99.90
3921;DHT22;1975;49.356;6.816;2023-03-19T08:30:06;11.00;99.90
3921;DHT22;1975;49.356;6.816;2023-03-19T08:32:33;11.00;99.90
3921;DHT22;1975;49.356;6.816;2023-03-19T08:34:58;11.00;99.90
3921;DHT22;1975;49.356;6.816;2023-03-19T08:37:24;11.00;99.90
3921;DHT22;1975;49.356;6.816;2023-03-19T08:39:50;11.00;99.90
3921;DHT22;1975;49.356;6.816;2023-03-19T08:42:16;11.00;99.90
3921;DHT22;1975;49.356;6.816;2023-03-19T08:44:42;11.00;99.90
3921;DHT22;1975;49.356;6.816;2023-03-19T08:47:07;11.00;99.90
3921;DHT22;1975;49.356;6.816;2023-03-19T08:49:33;11.00;99.90
3921;DHT22;1975;49.356;6.816;2023-03-19T08:51:58;11.00;99.90
3921;DHT22;1975;49.356;6.816;2023-03-19T08:54:24;11.00;99.90
3921;DHT22;1975;49.356;6.816;2023-03-19T08:56:49;11.00;99.90
3921;DHT22;1975;49.356;6.816;2023-03-19T08:59:15;11.00;99.90
3921;DHT22;1975;49.356;6.816;2023-03-19T09:01:41;11.00;99.90
3921;DHT22;1975;49.356;6.816;2023-03-19T09:04:06;11.00;99.90
3921;DHT22;1975;49.356;6.816;2023-03-19T09:06:32;11.00;99.90
3921;DHT22;1975;49.356;6.816;2023-03-19T09:08:57;11.00;99.90
3921;DHT22;1975;49.356;6.816;2023-03-19T09:11:23;11.00;99.90
3921;DHT22;1975;49.356;6.816;2023-03-19T09:13:48;11.00;99.90
3921;DHT22;1975;49.356;6.816;2023-03-19T09:16:14;11.00;99.90
3921;DHT22;1975;49.356;6.816;2023-03-19T09:18:39;11.00;99.90
3921;DHT22;1975;49.356;6.816;2023-03-19T09:21:05;11.00;99.90
3921;DHT22;1975;49.356;6.816;2023-03-19T09:23:30;11.00;99.90
3921;DHT22;1975;49.356;6.816;2023-03-19T09:25:56;11.00;99.90
3921;DHT22;1975;49.356;6.816;2023-03-19T09:28:21;11.00;99.90
3921;DHT22;1975;49.356;6.816;2023-03-19T09:30:47;11.00;99.90
3921;DHT22;1975;49.356;6.816;2023-03-19T09:33:13;11.00;99.90
3921;DHT22;1975;49.356;6.816;2023-03-19T09:35:39;11.00;99.90
3921;DHT22;1975;49.356;6.816;2023-03-19T09:38:04;11.00;99.90
3921;DHT22;1975;49.356;6.816;2023-03-19T09:40:37;11.00;99.90
3921;DHT22;1975;49.356;6.816;2023-03-19T09:45:44;11.00;99.90
3921;DHT22;1975;49.356;6.816;2023-03-19T09:48:13;11.00;99.90
3921;DHT22;1975;49.356;6.816;2023-03-19T09:50:40;11.00;99.90
3921;DHT22;1975;49.356;6.816;2023-03-19T09:53:07;11.00;99.90
3921;DHT22;1975;49.356;6.816;2023-03-19T09:58:47;10.90;99.90
3921;DHT22;1975;49.356;6.816;2023-03-19T10:00:54;10.90;99.90
3921;DHT22;1975;49.356;6.816;2023-03-19T10:08:37;11.00;99.90
3921;DHT22;1975;49.356;6.816;2023-03-19T10:13:55;11.00;99.90
3921;DHT22;1975;49.356;6.816;2023-03-19T10:16:23;11.00;99.90
3921;DHT22;1975;49.356;6.816;2023-03-19T10:18:50;11.00;99.90
3921;DHT22;1975;49.356;6.816;2023-03-19T10:21:28;11.00;99.90
3921;DHT22;1975;49.356;6.816;2023-03-19T10:23:58;11.00;99.90
3921;DHT22;1975;49.356;6.816;2023-03-19T10:26:27;11.00;99.90
3921;DHT22;1975;49.356;6.816;2023-03-19T10:31:36;11.00;99.90
3921;DHT22;1975;49.356;6.816;2023-03-19T10:36:39;11.00;99.90
3921;DHT22;1975;49.356;6.816;2023-03-19T10:39:05;11.00;99.90
3921;DHT22;1975;49.356;6.816;2023-03-19T10:44:01;11.00;99.90
3921;DHT22;1975;49.356;6.816;2023-03-19T10:46:27;11.00;99.90
3921;DHT22;1975;49.356;6.816;2023-03-19T10:48:52;11.00;99.90
3921;DHT22;1975;49.356;6.816;2023-03-19T10:51:27;11.00;99.90
3921;DHT22;1975;49.356;6.816;2023-03-19T10:53:52;11.00;99.90
3921;DHT22;1975;49.356;6.816;2023-03-19T10:56:20;11.00;99.90
3921;DHT22;1975;49.356;6.816;2023-03-19T11:01:21;11.00;99.90
3921;DHT22;1975;49.356;6.816;2023-03-19T11:03:51;11.00;99.90
3921;DHT22;1975;49.356;6.816;2023-03-19T11:06:32;11.00;99.90
3921;DHT22;1975;49.356;6.816;2023-03-19T11:11:41;11.00;99.90
3921;DHT22;1975;49.356;6.816;2023-03-19T11:14:13;11.00;99.90
3921;DHT22;1975;49.356;6.816;2023-03-19T11:17:15;11.10;99.90
3921;DHT22;1975;49.356;6.816;2023-03-19T11:19:39;11.10;99.90
3921;DHT22;1975;49.356;6.816;2023-03-19T11:22:15;11.10;99.90
3921;DHT22;1975;49.356;6.816;2023-03-19T11:25:12;11.10;99.90
3921;DHT22;1975;49.356;6.816;2023-03-19T11:27:34;11.10;99.90
3921;DHT22;1975;49.356;6.816;2023-03-19T11:30:00;11.10;99.90
3921;DHT22;1975;49.356;6.816;2023-03-19T11:35:14;11.10;99.90
3921;DHT22;1975;49.356;6.816;2023-03-19T11:40:13;11.10;99.90
3921;DHT22;1975;49.356;6.816;2023-03-19T11:42:42;11.10;99.90
3921;DHT22;1975;49.356;6.816;2023-03-19T11:47:39;11.10;99.90
3921;DHT22;1975;49.356;6.816;2023-03-19T11:58:03;11.10;99.90
3921;DHT22;1975;49.356;6.816;2023-03-19T12:00:35;11.10;99.90
3921;DHT22;1975;49.356;6.816;2023-03-19T12:03:26;11.10;99.90
3921;DHT22;1975;49.356;6.816;2023-03-19T12:06:00;11.10;99.90
3921;DHT22;1975;49.356;6.816;2023-03-19T12:08:42;11.10;99.90
3921;DHT22;1975;49.356;6.816;2023-03-19T12:16:23;11.10;99.90
3921;DHT22;1975;49.356;6.816;2023-03-19T12:19:01;11.10;99.90
3921;DHT22;1975;49.356;6.816;2023-03-19T12:21:35;11.10;99.90
3921;DHT22;1975;49.356;6.816;2023-03-19T12:32:06;11.20;99.90
3921;DHT22;1975;49.356;6.816;2023-03-19T12:34:38;11.20;99.90
3921;DHT22;1975;49.356;6.816;2023-03-19T12:37:07;11.20;99.90
3921;DHT22;1975;49.356;6.816;2023-03-19T12:39:37;11.20;99.90
3921;DHT22;1975;49.356;6.816;2023-03-19T12:42:03;11.20;99.90
3921;DHT22;1975;49.356;6.816;2023-03-19T12:44:39;11.20;99.90
3921;DHT22;1975;49.356;6.816;2023-03-19T12:47:07;11.20;99.90
3921;DHT22;1975;49.356;6.816;2023-03-19T12:49:55;11.20;99.90
3921;DHT22;1975;49.356;6.816;2023-03-19T12:52:24;11.30;99.90
3921;DHT22;1975;49.356;6.816;2023-03-19T13:00:14;11.30;99.90
3921;DHT22;1975;49.356;6.816;2023-03-19T13:05:48;11.30;99.90
3921;DHT22;1975;49.356;6.816;2023-03-19T13:10:37;11.30;99.90
3921;DHT22;1975;49.356;6.816;2023-03-19T13:13:08;11.30;99.90
3921;DHT22;1975;49.356;6.816;2023-03-19T13:15:42;11.30;99.90
3921;DHT22;1975;49.356;6.816;2023-03-19T13:23:06;11.30;99.90
3921;DHT22;1975;49.356;6.816;2023-03-19T13:25:34;11.30;99.90
3921;DHT22;1975;49.356;6.816;2023-03-19T13:28:01;11.20;99.90
3921;DHT22;1975;49.356;6.816;2023-03-19T13:30:30;11.20;99.90
3921;DHT22;1975;49.356;6.816;2023-03-19T13:33:00;11.20;99.90
3921;DHT22;1975;49.356;6.816;2023-03-19T13:37:56;11.20;99.90
3921;DHT22;1975;49.356;6.816;2023-03-19T13:40:39;11.20;99.90
3921;DHT22;1975;49.356;6.816;2023-03-19T13:43:19;11.20;99.90
3921;DHT22;1975;49.356;6.816;2023-03-19T13:45:45;11.20;99.90
3921;DHT22;1975;49.356;6.816;2023-03-19T13:48:22;11.20;99.90
3921;DHT22;1975;49.356;6.816;2023-03-19T13:51:34;11.20;99.90
3921;DHT22;1975;49.356;6.816;2023-03-19T13:53:36;11.20;99.90
3921;DHT22;1975;49.356;6.816;2023-03-19T13:56:05;11.20;99.90
3921;DHT22;1975;49.356;6.816;2023-03-19T13:59:34;11.20;99.90
3921;DHT22;1975;49.356;6.816;2023-03-19T14:03:57;11.20;99.90
3921;DHT22;1975;49.356;6.816;2023-03-19T14:06:39;11.20;99.90
3921;DHT22;1975;49.356;6.816;2023-03-19T14:09:26;11.20;99.90
3921;DHT22;1975;49.356;6.816;2023-03-19T14:11:53;11.20;99.90
3921;DHT22;1975;49.356;6.816;2023-03-19T14:14:18;11.20;99.90
3921;DHT22;1975;49.356;6.816;2023-03-19T14:16:46;11.20;99.90
3921;DHT22;1975;49.356;6.816;2023-03-19T14:19:15;11.20;99.90
3921;DHT22;1975;49.356;6.816;2023-03-19T14:21:44;11.20;99.90
3921;DHT22;1975;49.356;6.816;2023-03-19T14:26:55;11.20;99.90
3921;DHT22;1975;49.356;6.816;2023-03-19T14:29:22;11.20;99.90
3921;DHT22;1975;49.356;6.816;2023-03-19T14:31:54;11.20;99.90
3921;DHT22;1975;49.356;6.816;2023-03-19T14:34:25;11.20;99.90
3921;DHT22;1975;49.356;6.816;2023-03-19T14:36:55;11.20;99.90
3921;DHT22;1975;49.356;6.816;2023-03-19T14:39:25;11.20;99.90
3921;DHT22;1975;49.356;6.816;2023-03-19T14:42:05;11.20;99.90
3921;DHT22;1975;49.356;6.816;2023-03-19T14:44:38;11.20;99.90
3921;DHT22;1975;49.356;6.816;2023-03-19T14:47:18;11.30;99.90
3921;DHT22;1975;49.356;6.816;2023-03-19T14:49:55;11.30;99.90
3921;DHT22;1975;49.356;6.816;2023-03-19T14:54:54;11.30;99.90
3921;DHT22;1975;49.356;6.816;2023-03-19T14:57:26;11.30;99.90
3921;DHT22;1975;49.356;6.816;2023-03-19T14:59:52;11.30;99.90
3921;DHT22;1975;49.356;6.816;2023-03-19T15:04:46;11.30;99.90
3921;DHT22;1975;49.356;6.816;2023-03-19T15:07:28;11.30;99.90
3921;DHT22;1975;49.356;6.816;2023-03-19T15:09:54;11.40;99.90
3921;DHT22;1975;49.356;6.816;2023-03-19T15:12:24;11.40;99.90
3921;DHT22;1975;49.356;6.816;2023-03-19T15:17:39;11.40;99.90
3921;DHT22;1975;49.356;6.816;2023-03-19T15:20:16;11.50;99.90
3921;DHT22;1975;49.356;6.816;2023-03-19T15:22:42;11.50;99.90
3921;DHT22;1975;49.356;6.816;2023-03-19T15:25:09;11.50;99.90
3921;DHT22;1975;49.356;6.816;2023-03-19T15:27:35;11.50;99.90
3921;DHT22;1975;49.356;6.816;2023-03-19T15:30:01;11.60;99.90
3921;DHT22;1975;49.356;6.816;2023-03-19T15:32:31;11.60;99.90
3921;DHT22;1975;49.356;6.816;2023-03-19T15:34:57;11.70;99.90
3921;DHT22;1975;49.356;6.816;2023-03-19T15:37:23;11.70;99.90
3921;DHT22;1975;49.356;6.816;2023-03-19T15:39:50;11.70;99.90
3921;DHT22;1975;49.356;6.816;2023-03-19T15:42:16;11.70;99.90
3921;DHT22;1975;49.356;6.816;2023-03-19T15:44:51;11.70;99.90
3921;DHT22;1975;49.356;6.816;2023-03-19T15:47:23;11.80;99.90
3921;DHT22;1975;49.356;6.816;2023-03-19T15:49:57;11.80;99.90
3921;DHT22;1975;49.356;6.816;2023-03-19T15:52:23;11.80;99.90
3921;DHT22;1975;49.356;6.816;2023-03-19T15:54:50;11.70;99.90
3921;DHT22;1975;49.356;6.816;2023-03-19T15:57:15;11.80;99.90
3921;DHT22;1975;49.356;6.816;2023-03-19T15:59:43;11.80;99.90
3921;DHT22;1975;49.356;6.816;2023-03-19T16:02:22;11.80;99.90
3921;DHT22;1975;49.356;6.816;2023-03-19T16:04:49;11.80;99.90
3921;DHT22;1975;49.356;6.816;2023-03-19T16:07:38;11.80;99.90
3921;DHT22;1975;49.356;6.816;2023-03-19T16:12:49;11.90;99.90
3921;DHT22;1975;49.356;6.816;2023-03-19T16:15:36;11.90;99.90
3921;DHT22;1975;49.356;6.816;2023-03-19T16:23:31;11.90;99.90
3921;DHT22;1975;49.356;6.816;2023-03-19T16:26:01;11.90;99.90
3921;DHT22;1975;49.356;6.816;2023-03-19T16:28:27;11.90;99.90
3921;DHT22;1975;49.356;6.816;2023-03-19T16:30:52;11.80;99.90
3921;DHT22;1975;49.356;6.816;2023-03-19T16:33:18;11.80;99.90
3921;DHT22;1975;49.356;6.816;2023-03-19T16:35:44;11.80;99.90
3921;DHT22;1975;49.356;6.816;2023-03-19T16:38:14;11.80;99.90
3921;DHT22;1975;49.356;6.816;2023-03-19T16:43:11;11.70;99.90
3921;DHT22;1975;49.356;6.816;2023-03-19T16:45:38;11.70;99.90
3921;DHT22;1975;49.356;6.816;2023-03-19T16:48:03;11.70;99.90
3921;DHT22;1975;49.356;6.816;2023-03-19T16:50:34;11.70;99.90
3921;DHT22;1975;49.356;6.816;2023-03-19T16:53:00;11.70;99.90
3921;DHT22;1975;49.356;6.816;2023-03-19T16:55:27;11.70;99.90
3921;DHT22;1975;49.356;6.816;2023-03-19T16:58:04;11.70;99.90
3921;DHT22;1975;49.356;6.816;2023-03-19T17:00:32;11.70;99.90
3921;DHT22;1975;49.356;6.816;2023-03-19T17:02:58;11.70;99.90
3921;DHT22;1975;49.356;6.816;2023-03-19T17:05:24;11.70;99.90
3921;DHT22;1975;49.356;6.816;2023-03-19T17:07:50;11.70;99.90
3921;DHT22;1975;49.356;6.816;2023-03-19T17:10:17;11.70;99.90
3921;DHT22;1975;49.356;6.816;2023-03-19T17:12:43;11.70;99.90
3921;DHT22;1975;49.356;6.816;2023-03-19T17:15:14;11.70;99.90
3921;DHT22;1975;49.356;6.816;2023-03-19T17:17:41;11.70;99.90
3921;DHT22;1975;49.356;6.816;2023-03-19T17:20:12;11.60;99.90
3921;DHT22;1975;49.356;6.816;2023-03-19T17:22:38;11.60;99.90
3921;DHT22;1975;49.356;6.816;2023-03-19T17:25:05;11.60;99.90
3921;DHT22;1975;49.356;6.816;2023-03-19T17:27:33;11.60;99.90
3921;DHT22;1975;49.356;6.816;2023-03-19T17:29:58;11.60;99.90
3921;DHT22;1975;49.356;6.816;2023-03-19T17:32:24;11.60;99.90
3921;DHT22;1975;49.356;6.816;2023-03-19T17:34:50;11.60;99.90
3921;DHT22;1975;49.356;6.816;2023-03-19T17:37:15;11.60;99.90
3921;DHT22;1975;49.356;6.816;2023-03-19T17:39:41;11.60;99.90
3921;DHT22;1975;49.356;6.816;2023-03-19T17:42:25;11.60;99.90
3921;DHT22;1975;49.356;6.816;2023-03-19T17:44:51;11.60;99.90